Latest Weather Observations for Davis*

IDT60801

Issued at 8:35 pm EST Friday 18 April 2014 (issued every 30 minutes, with the page automatically refreshed every 10 minutes)

About weather observations | Map of weather stations | Latest weather observations for ANT | Other Formats
Station Details ID: 300000 Name: DAVIS Lat: -68.57 Lon: 77.97 Height: 18.0 m
Data from the previous 72 hours. | See also: Recent months at Davis*
Date/Time
EST
Temp
°C
App
Temp
°C
Dew
Point
Rel
Hum
%
Delta-T
°C
Wind Press
QNH
hPa
Press
MSL
hPa
Rain
since 9 am
mm
Dir
 
Spd
km/h
Gust
km/h
Spd
kts
Gust
kts
18/08:30pm -11.8 -19.5 -17.4 63 - SE 22 30 12 16 975.4 - -
18/08:00pm -12.0 -18.8 -18.4 59 - ESE 17 20 9 11 976.2 - -
18/07:30pm -12.8 -18.8 -19.5 57 - ESE 13 17 7 9 977.1 - -
18/07:00pm -13.0 -19.4 -20.1 55 - ESE 15 17 8 9 977.7 977.9 -
18/06:30pm -13.3 -19.7 -20.2 56 - ESE 15 20 8 11 978.3 - -
18/06:00pm -13.6 -20.1 -20.5 56 - ESE 15 19 8 10 978.8 - -
18/05:30pm -13.6 -20.1 -21.3 52 - ESE 15 19 8 10 979.4 - -
18/05:00pm -14.1 -20.6 -22.0 51 - ESE 15 19 8 10 980.1 - -
18/04:30pm -14.1 -20.6 -22.2 50 - SE 15 19 8 10 980.7 - -
18/04:00pm -14.6 -20.7 -22.5 51 - ESE 13 17 7 9 981.5 981.7 -
18/03:30pm -15.6 -22.5 -22.1 57 - ESE 17 24 9 13 981.9 - -
18/03:00pm -16.5 -23.8 -22.4 60 - ESE 19 22 10 12 982.4 - -
18/02:30pm -16.7 -24.2 -22.4 61 - ESE 20 24 11 13 982.8 - -
18/02:00pm -17.3 -24.8 -23.0 61 - ESE 20 24 11 13 983.2 - -
18/01:30pm -18.4 -25.9 -23.3 65 - ESE 20 24 11 13 983.6 - -
18/01:00pm -18.9 -26.4 -23.3 68 - ESE 20 28 11 15 984.1 984.3 -
18/12:30pm -19.3 -27.2 -23.7 68 - ESE 22 26 12 14 984.6 - -
18/12:00pm -19.5 -26.8 -23.9 68 - ESE 19 20 10 11 985.0 - -
18/11:30am -20.5 -27.1 -24.4 71 - ESE 15 19 8 10 985.4 - -
18/11:00am -21.5 -28.1 -26.1 66 - ESE 15 17 8 9 985.8 - -
18/10:30am -21.3 -26.8 -27.0 60 - ESE 9 13 5 7 986.1 - -
18/10:00am -21.4 -26.9 -27.4 58 - E 9 11 5 6 986.2 986.5 -
18/09:30am -21.2 -26.7 -27.0 60 - ESE 9 11 5 6 986.2 - -
18/09:00am -20.9 -27.1 -27.0 58 - ENE 13 13 7 7 986.4 - -
18/08:30am -21.4 -28.4 -27.1 60 - ENE 17 20 9 11 986.6 - -
18/08:00am -21.9 -28.9 -28.1 57 - E 17 20 9 11 986.4 - -
18/07:30am -21.6 -28.6 -28.8 52 - E 17 20 9 11 986.5 - -
18/07:00am -22.4 -29.1 -28.7 57 - E 15 17 8 9 986.5 986.8 -
18/06:30am -23.8 -30.5 -30.1 56 - E 15 17 8 9 986.6 - -
18/06:00am -24.5 -31.2 -31.1 54 - ESE 15 17 8 9 986.4 - -
18/05:30am -25.8 -32.9 -30.2 67 - E 17 19 9 10 986.5 - -
18/05:00am -26.0 -32.7 -30.3 67 - ESE 15 15 8 8 986.4 - -
18/04:30am -27.2 -33.1 -30.4 74 - ESE 11 15 6 8 986.7 - -
18/04:00am -27.6 -33.9 -30.9 73 - ESE 13 15 7 8 986.8 987.1 -
18/03:30am -27.9 -33.8 -31.1 74 - E 11 11 6 6 986.6 - -
18/03:00am -28.1 -33.7 -31.4 73 - E 9 11 5 6 986.6 - -
18/02:30am -28.0 -33.2 -30.8 77 - NE 7 9 4 5 986.7 - -
18/02:00am -28.4 -34.0 -31.1 78 - E 9 11 5 6 986.3 - -
18/01:30am -28.9 -34.5 -31.6 77 - E 9 11 5 6 985.9 - -
18/01:00am -29.7 -35.3 -32.8 74 - ENE 9 9 5 5 985.6 985.8 -
18/12:30am -28.9 -34.1 -32.0 75 - ENE 7 9 4 5 985.4 - -
18/12:00am -28.6 -33.8 -31.8 74 - NE 7 7 4 4 985.2 - -
 
Date/Time
EST
Temp
°C
App
Temp
°C
Dew
Point
Rel
Hum
%
Delta-T
°C
Wind Press
QNH
hPa
Press
MSL
hPa
Rain
since 9 am
mm
Dir
 
Spd
km/h
Gust
km/h
Spd
kts
Gust
kts
17/11:30pm -28.9 -34.1 -32.2 73 - NNE 7 7 4 4 985.0 - -
17/11:00pm -28.3 -33.5 -31.9 71 - NNE 7 9 4 5 984.8 - -
17/10:30pm -28.5 -32.7 -31.8 73 - NNW 2 7 1 4 984.2 - -
17/10:00pm -28.0 -32.6 -31.2 74 - NW 4 7 2 4 983.9 984.1 -
17/09:30pm -28.1 -33.3 -31.8 71 - NW 7 9 4 5 983.4 - -
17/09:00pm -26.8 -33.1 -30.4 72 - NW 13 15 7 8 983.1 - -
17/08:30pm -26.1 -31.6 -29.9 70 - NNW 9 13 5 7 982.5 - -
17/08:00pm -26.6 -31.8 -30.0 73 - NNE 7 9 4 5 982.0 - -
17/07:30pm -26.1 -31.3 -29.8 71 - N 7 9 4 5 981.4 - -
17/07:00pm -25.6 -31.1 -29.3 71 - NNW 9 11 5 6 981.1 981.3 -
17/06:30pm -24.7 -30.6 -29.0 67 - NW 11 13 6 7 980.6 - -
17/06:00pm -24.5 -30.0 -29.2 65 - WNW 9 13 5 7 980.2 - -
17/05:30pm -25.3 -31.2 -29.4 69 - WNW 11 15 6 8 979.9 - -
17/05:00pm -25.1 -31.4 -28.9 71 - NW 13 17 7 9 979.3 - -
17/04:30pm -25.2 -32.2 -28.7 73 - WNW 17 20 9 11 978.9 - -
17/04:00pm -24.8 -31.8 -28.5 71 - WNW 17 20 9 11 978.6 978.8 -
17/03:30pm -24.8 -32.4 -28.1 74 - WNW 20 24 11 13 978.3 - -
17/03:00pm -24.8 -32.2 -27.9 75 - W 19 24 10 13 978.0 - -
17/02:30pm -25.3 -30.3 -29.0 71 - N 6 7 3 4 977.6 - -
17/02:00pm -26.2 -31.2 -30.5 67 - NE 6 7 3 4 977.5 - -
17/01:30pm -27.6 -32.8 -31.5 69 - ENE 7 9 4 5 977.3 - -
17/01:00pm -27.0 -32.5 -30.2 74 - NE 9 11 5 6 977.1 977.3 -
17/12:30pm -28.0 -33.0 -31.6 71 - NE 6 7 3 4 977.3 - -
17/12:00pm -29.1 -33.7 -33.3 67 - NE 4 7 2 4 977.3 - -
17/11:30am -28.2 -33.4 -32.9 64 - SE 7 9 4 5 977.5 - -
17/11:00am -27.8 -31.7 -32.5 64 - CALM 0 0 0 0 977.5 - -
17/10:30am -27.7 -31.6 -31.8 68 - CALM 0 0 0 0 977.7 - -
17/10:00am -27.7 -31.9 -32.2 65 - SW 2 7 1 4 977.8 978.0 -
17/09:30am -27.4 -32.6 -32.8 60 - SE 7 9 4 5 978.0 - -
17/09:00am -27.2 -31.8 -32.1 63 - SSE 4 6 2 3 978.4 - -
17/08:30am -26.7 -31.3 -31.9 61 - ESE 4 6 2 3 978.8 - -
17/08:00am -26.8 -32.8 -32.2 60 - SSE 11 13 6 7 979.2 - -
17/07:30am -25.9 -31.5 -31.0 62 - E 9 11 5 6 979.5 - -
17/07:00am -26.3 -31.9 -31.7 60 - SE 9 13 5 7 980.0 980.2 -
17/06:30am -26.4 -32.0 -32.2 58 - ESE 9 11 5 6 980.4 - -
17/06:00am -25.9 -31.8 -31.7 58 - SE 11 13 6 7 980.8 - -
17/05:30am -26.3 -31.5 -31.5 62 - ESE 7 9 4 5 981.5 - -
17/05:00am -25.7 -31.3 -31.5 58 - E 9 9 5 5 982.0 - -
17/04:30am -25.7 -31.6 -31.3 59 - ESE 11 13 6 7 982.8 - -
17/04:00am -25.7 -31.6 -31.5 58 - ESE 11 13 6 7 983.5 983.7 -
17/03:30am -25.1 -31.4 -31.3 56 - ESE 13 15 7 8 984.1 - -
17/03:00am -25.4 -31.0 -31.6 56 - ESE 9 11 5 6 985.0 - -
17/02:30am -25.4 -29.6 -31.4 57 - S 2 6 1 3 985.6 - -
17/02:00am -24.6 -30.9 -31.2 54 - SE 13 15 7 8 986.4 - -
17/01:30am -24.9 -31.2 -30.7 58 - ESE 13 17 7 9 987.1 - -
17/01:00am -24.4 -29.9 -30.4 58 - ESE 9 11 5 6 987.8 988.1 -
17/12:30am -24.6 -30.5 -30.6 57 - SE 11 15 6 8 988.5 - -
17/12:00am -24.5 -30.8 -29.3 64 - SE 13 15 7 8 989.1 - -
 
Date/Time
EST
Temp
°C
App
Temp
°C
Dew
Point
Rel
Hum
%
Delta-T
°C
Wind Press
QNH
hPa
Press
MSL
hPa
Rain
since 9 am
mm
Dir
 
Spd
km/h
Gust
km/h
Spd
kts
Gust
kts
16/11:30pm -24.5 -29.5 -29.5 63 - S 6 7 3 4 989.8 - -
16/11:00pm -24.2 -28.0 -29.7 60 - CALM 0 6 0 3 990.3 - -
16/10:30pm -23.5 -27.7 -28.7 62 - E 2 7 1 4 990.8 - -
16/10:00pm -23.5 -30.2 -29.6 57 - SE 15 15 8 8 991.4 991.7 -
16/09:30pm -22.3 -28.6 -28.1 59 - SSE 13 15 7 8 992.0 - -
16/09:00pm -22.4 -29.1 -28.2 59 - SSE 15 17 8 9 992.3 - -
16/08:30pm -21.7 -27.6 -28.3 55 - SE 11 13 6 7 993.1 - -
16/08:00pm -21.6 -26.7 -28.0 56 - SE 7 9 4 5 993.7 - -
16/07:30pm -21.8 -28.5 -28.2 56 - ENE 15 17 8 9 994.3 - -
16/07:00pm -22.1 -28.4 -28.5 56 - ENE 13 15 7 8 994.8 995.1 -
16/06:30pm -21.3 -27.2 -27.7 56 - ENE 11 13 6 7 995.4 - -
16/06:00pm -20.9 -25.8 -27.9 53 - NE 6 7 3 4 996.1 - -
16/05:30pm -20.7 -25.8 -27.7 53 - ENE 7 7 4 4 996.5 - -
16/05:00pm -21.2 -26.7 -27.6 56 - ENE 9 11 5 6 996.9 - -
16/04:30pm -21.9 -27.8 -27.5 60 - E 11 13 6 7 997.4 - -
16/04:00pm -21.3 -27.6 -27.9 55 - E 13 15 7 8 997.6 997.9 -
16/03:30pm -22.0 -28.3 -27.8 59 - ENE 13 17 7 9 997.9 - -
16/03:00pm -22.2 -28.5 -28.9 54 - E 13 15 7 8 998.4 - -
16/02:30pm -22.5 -28.8 -29.2 54 - ESE 13 15 7 8 998.6 - -
16/02:00pm -23.0 -29.7 -29.3 56 - ESE 15 17 8 9 999.0 - -
16/01:30pm -23.1 -29.4 -29.2 57 - ESE 13 15 7 8 999.4 - -
16/01:00pm -23.4 -29.7 -29.0 60 - ESE 13 15 7 8 999.4 999.6 -
16/12:30pm -23.2 -29.5 -28.4 62 - SE 13 15 7 8 999.6 - -
16/12:00pm -23.3 -29.6 -28.7 61 - ESE 13 15 7 8 999.9 - -
16/11:30am -23.4 -28.9 -29.0 60 - ESE 9 11 5 6 1000.1 - -
16/11:00am -23.2 -29.5 -28.8 60 - SE 13 17 7 9 1000.1 - -
16/10:30am -22.5 -29.5 -28.3 59 - SE 17 20 9 11 1000.3 - -
16/10:00am -22.5 -29.2 -28.3 59 - SE 15 17 8 9 1000.3 1000.5 -
16/09:30am -22.3 -28.9 -27.9 60 - SE 15 17 8 9 1000.2 - -
16/09:00am -21.9 -28.2 -27.5 60 - ESE 13 15 7 8 1000.3 - -
16/08:30am -21.3 -27.5 -27.0 60 - SSE 13 15 7 8 1000.4 - -
16/08:00am -21.2 -28.2 -27.0 60 - SE 17 20 9 11 1000.2 - -
16/07:30am -20.6 -26.8 -25.9 62 - SE 13 15 7 8 1000.2 - -
16/07:00am -20.4 -25.9 -26.3 59 - SE 9 13 5 7 999.9 1000.1 -
16/06:30am -20.1 -26.3 -26.4 57 - ESE 13 17 7 9 999.5 - -
16/06:00am -20.5 -27.5 -26.4 59 - ESE 17 20 9 11 999.3 - -
16/05:30am -20.4 -27.4 -26.5 58 - ESE 17 20 9 11 999.1 - -
16/05:00am -20.3 -26.9 -25.8 61 - SE 15 20 8 11 998.9 - -
16/04:30am -19.6 -26.6 -24.8 63 - SE 17 20 9 11 998.8 - -
16/04:00am -19.4 -26.0 -24.3 65 - SE 15 17 8 9 998.6 998.8 -
16/03:30am -19.1 -25.3 -24.0 65 - SE 13 17 7 9 998.4 - -
16/03:00am -19.1 -24.9 -23.8 66 - ESE 11 15 6 8 998.1 - -
16/02:30am -19.4 -25.2 -23.9 67 - ESE 11 15 6 8 997.7 - -
16/02:00am -19.5 -25.3 -23.9 68 - E 11 13 6 7 997.4 - -
16/01:30am -19.5 -25.3 -23.7 69 - SE 11 13 6 7 997.0 - -
16/01:00am -19.5 -25.3 -23.7 69 - E 11 13 6 7 996.7 997.0 -
16/12:30am -19.6 -25.4 -22.9 75 - ESE 11 13 6 7 996.4 - -
16/12:00am -19.7 -25.5 -22.5 78 - E 11 13 6 7 995.9 - -

Other Formats:

Comma delimited format used in spreadsheet applications
http://www.bom.gov.au/fwo/IDT60803/IDT60803.89571.axf

JavaScript Object Notation format (JSON) in row-major order
http://www.bom.gov.au/fwo/IDT60803/IDT60803.89571.json